Time;durP1;ratioP1;P1;durP2;ratioP2;P2;SDS_P1;SDS_P2;PMS_P1;PMS_P2;Temp;Humidity;BMP_temperature;BMP_pressure;BME280_temperature;BME280_humidity;BME280_pressure;Samples;Min_cycle;Max_cycle;Signal;HPM_P1;HPM_P2
2023/12/07 00:00:36;;;;;;;71.95;34.15;;;2.10;99.90;;;;;;5046309;28;20162;-49
2023/12/07 00:03:02;;;;;;;64.95;32.63;;;2.10;99.90;;;;;;5047523;28;20105;-46
2023/12/07 00:05:28;;;;;;;73.72;34.65;;;2.10;99.90;;;;;;5047952;28;20028;-47
2023/12/07 00:07:53;;;;;;;67.55;32.40;;;2.10;99.90;;;;;;5047679;28;20098;-45
2023/12/07 00:10:19;;;;;;;69.95;34.53;;;2.10;99.90;;;;;;5047705;28;20486;-47
2023/12/07 00:12:45;;;;;;;68.85;34.13;;;2.10;99.90;;;;;;5048468;28;20100;-50
2023/12/07 00:15:10;;;;;;;68.45;32.75;;;2.20;99.90;;;;;;5048019;28;20032;-45
2023/12/07 00:17:36;;;;;;;66.90;32.95;;;2.20;99.90;;;;;;5047963;28;20469;-46
2023/12/07 00:20:04;;;;;;;66.32;32.60;;;2.20;99.90;;;;;;5048075;28;20021;-43
2023/12/07 00:22:29;;;;;;;63.80;32.60;;;2.20;99.90;;;;;;5048453;28;20028;-45
2023/12/07 00:24:55;;;;;;;68.90;33.88;;;2.20;99.90;;;;;;5036620;28;20022;-49
2023/12/07 00:27:21;;;;;;;72.50;34.80;;;2.20;99.90;;;;;;5028277;28;20033;-45
2023/12/07 00:29:46;;;;;;;65.53;34.25;;;2.10;99.90;;;;;;5027486;28;20099;-49
2023/12/07 00:32:12;;;;;;;69.78;34.63;;;2.20;99.90;;;;;;5028105;28;20056;-45
2023/12/07 00:34:38;;;;;;;71.93;34.60;;;2.20;99.90;;;;;;5027851;28;20262;-45
2023/12/07 00:37:03;;;;;;;73.40;35.53;;;2.20;99.90;;;;;;5028736;28;20014;-46
2023/12/07 00:39:29;;;;;;;68.60;35.10;;;2.20;99.90;;;;;;5028589;28;20067;-46
2023/12/07 00:41:54;;;;;;;76.57;35.67;;;2.10;99.90;;;;;;5028999;28;20021;-45
2023/12/07 00:44:20;;;;;;;75.82;36.65;;;2.20;99.90;;;;;;5028509;28;20024;-48
2023/12/07 00:46:46;;;;;;;68.28;33.25;;;2.10;99.90;;;;;;5028880;28;20061;-46
2023/12/07 00:49:12;;;;;;;77.60;36.55;;;2.20;99.90;;;;;;5027574;28;20116;-46
2023/12/07 00:55:12;;;;;;;74.53;33.65;;;2.20;99.90;;;;;;5020897;28;20036;-44
2023/12/07 00:57:37;;;;;;;70.82;34.35;;;2.20;99.90;;;;;;5043634;28;20025;-46
2023/12/07 01:00:04;;;;;;;79.05;36.97;;;2.20;99.90;;;;;;5028575;28;20537;-46
2023/12/07 01:02:29;;;;;;;74.07;34.20;;;2.20;99.90;;;;;;5028620;28;20490;-48
2023/12/07 01:04:55;;;;;;;89.05;39.65;;;2.20;99.90;;;;;;5026472;28;20121;-47
2023/12/07 01:07:21;;;;;;;76.25;35.97;;;2.20;99.90;;;;;;5027964;28;20060;-46
2023/12/07 01:09:46;;;;;;;76.25;36.08;;;2.20;99.90;;;;;;5028119;28;20394;-44
2023/12/07 01:12:12;;;;;;;73.35;34.75;;;2.20;99.90;;;;;;5028989;28;20028;-45
2023/12/07 01:14:38;;;;;;;76.22;34.80;;;2.20;99.90;;;;;;5032300;28;20033;-47
2023/12/07 01:17:04;;;;;;;78.53;36.33;;;2.30;99.90;;;;;;5032176;28;20025;-49
2023/12/07 01:19:29;;;;;;;75.43;35.95;;;2.30;99.90;;;;;;5032383;28;20020;-49
2023/12/07 01:21:55;;;;;;;86.53;38.03;;;2.30;99.90;;;;;;5033186;28;20435;-46
2023/12/07 01:24:20;;;;;;;74.10;35.22;;;2.30;99.90;;;;;;5018062;28;20482;-47
2023/12/07 01:26:46;;;;;;;87.50;38.08;;;2.30;99.90;;;;;;5032672;28;20430;-45
2023/12/07 01:29:13;;;;;;;80.55;37.55;;;2.30;99.90;;;;;;5032210;28;20036;-49
2023/12/07 01:31:39;;;;;;;89.07;38.13;;;2.30;99.90;;;;;;5033129;28;20033;-46
2023/12/07 01:34:05;;;;;;;82.38;38.38;;;2.20;99.90;;;;;;5032318;28;20037;-47
2023/12/07 01:36:31;;;;;;;77.82;37.05;;;2.30;99.90;;;;;;5031478;28;20396;-44
2023/12/07 01:38:56;;;;;;;86.95;38.05;;;2.30;99.90;;;;;;5032345;28;20376;-48
2023/12/07 01:41:23;;;;;;;83.32;36.40;;;2.30;99.90;;;;;;5032199;28;20075;-45
2023/12/07 01:43:48;;;;;;;72.10;34.63;;;2.30;99.90;;;;;;5033129;28;20018;-45
2023/12/07 01:46:16;;;;;;;73.93;33.58;;;2.30;99.90;;;;;;5029990;28;20036;-47
2023/12/07 01:48:42;;;;;;;80.20;35.80;;;2.30;99.90;;;;;;5032772;28;20025;-46
2023/12/07 01:51:10;;;;;;;77.80;34.38;;;2.30;99.90;;;;;;5028892;28;20471;-45
2023/12/07 01:53:39;;;;;;;84.38;36.70;;;2.30;99.90;;;;;;5032935;28;20460;-46
2023/12/07 01:56:05;;;;;;;78.55;35.65;;;2.30;99.90;;;;;;5030953;28;20294;-49
2023/12/07 01:58:31;;;;;;;88.15;37.10;;;2.30;99.90;;;;;;5030707;28;20021;-45
2023/12/07 02:00:57;;;;;;;70.70;34.00;;;2.40;99.90;;;;;;5033082;28;20119;-47
2023/12/07 02:03:23;;;;;;;80.93;36.30;;;2.40;99.90;;;;;;5031663;28;20017;-46
2023/12/07 02:05:49;;;;;;;75.88;35.30;;;2.40;99.90;;;;;;5033613;28;20033;-46
2023/12/07 02:08:15;;;;;;;78.93;34.97;;;2.40;99.90;;;;;;5033178;28;20021;-43
2023/12/07 02:10:41;;;;;;;78.13;33.15;;;2.40;99.90;;;;;;5033401;28;20079;-42
2023/12/07 02:13:08;;;;;;;73.82;33.88;;;2.40;99.90;;;;;;5032567;28;20022;-43
2023/12/07 02:15:34;;;;;;;76.43;33.58;;;2.40;99.90;;;;;;5032753;28;20061;-42
2023/12/07 02:18:34;;;;;;;75.60;33.67;;;2.40;99.90;;;;;;5033442;28;20115;-42
2023/12/07 02:21:28;;;;;;;70.15;34.33;;;2.40;99.90;;;;;;5031917;28;20022;-42
2023/12/07 02:23:55;;;;;;;70.00;32.08;;;2.40;99.90;;;;;;5033685;28;20116;-43
2023/12/07 02:26:34;;;;;;;72.38;33.88;;;2.40;99.90;;;;;;5032173;28;20080;-44
2023/12/07 02:29:00;;;;;;;62.03;30.77;;;2.40;99.90;;;;;;5030122;28;20025;-47
2023/12/07 02:31:26;;;;;;;73.32;32.90;;;2.40;99.90;;;;;;5031694;28;20252;-46
2023/12/07 02:33:52;;;;;;;66.55;31.77;;;2.50;99.90;;;;;;5032518;28;20044;-47
2023/12/07 02:36:20;;;;;;;65.68;32.17;;;2.50;99.90;;;;;;5032954;28;20021;-47
2023/12/07 02:38:49;;;;;;;68.47;32.83;;;2.50;99.90;;;;;;5033154;28;20029;-49
2023/12/07 02:41:15;;;;;;;69.20;31.98;;;2.50;99.90;;;;;;5032825;28;20028;-47
2023/12/07 02:43:41;;;;;;;70.32;34.05;;;2.50;99.90;;;;;;5034006;28;20106;-46
2023/12/07 02:46:06;;;;;;;69.80;32.45;;;2.50;99.90;;;;;;5031468;28;20456;-49
2023/12/07 02:48:32;;;;;;;61.15;30.52;;;2.50;99.90;;;;;;5032360;28;20029;-45
2023/12/07 02:50:57;;;;;;;64.75;31.75;;;2.50;99.90;;;;;;5031493;28;20021;-45
2023/12/07 02:53:23;;;;;;;71.90;33.25;;;2.50;99.90;;;;;;5032560;28;20117;-46
2023/12/07 02:55:49;;;;;;;60.70;29.65;;;2.50;99.90;;;;;;5033638;28;20049;-45
2023/12/07 02:58:14;;;;;;;65.85;32.22;;;2.50;99.90;;;;;;5048704;28;20056;-47
2023/12/07 03:00:40;;;;;;;61.80;30.60;;;2.50;99.90;;;;;;5032116;28;20037;-47
2023/12/07 03:03:05;;;;;;;64.20;31.95;;;2.50;99.90;;;;;;5033396;28;20021;-49
2023/12/07 03:05:31;;;;;;;64.55;31.15;;;2.50;99.90;;;;;;5032893;28;20063;-47
2023/12/07 03:07:57;;;;;;;60.83;31.27;;;2.50;99.90;;;;;;5033914;28;20032;-48
2023/12/07 03:10:22;;;;;;;67.85;31.67;;;2.50;99.90;;;;;;5032682;28;20108;-47
2023/12/07 03:12:48;;;;;;;72.70;34.80;;;2.60;99.90;;;;;;5032556;28;20104;-45
2023/12/07 03:15:13;;;;;;;66.13;33.55;;;2.50;99.90;;;;;;5032786;28;20022;-44
2023/12/07 03:17:39;;;;;;;66.53;32.50;;;2.60;99.90;;;;;;5033724;28;20018;-45
2023/12/07 03:20:05;;;;;;;71.82;35.42;;;2.60;99.90;;;;;;5033259;28;20021;-45
2023/12/07 03:22:31;;;;;;;74.82;33.72;;;2.50;99.90;;;;;;5032953;28;20052;-46
2023/12/07 03:24:57;;;;;;;70.72;34.15;;;2.60;99.90;;;;;;5049957;28;20028;-48
2023/12/07 03:27:22;;;;;;;71.30;36.13;;;2.60;99.90;;;;;;5033071;28;20014;-46
2023/12/07 03:29:48;;;;;;;75.22;35.85;;;2.60;99.90;;;;;;5034605;28;20506;-46
2023/12/07 03:32:13;;;;;;;66.70;33.58;;;2.60;99.90;;;;;;5033507;28;20067;-46
2023/12/07 03:34:39;;;;;;;75.43;35.22;;;2.60;99.90;;;;;;5034096;28;20025;-47
2023/12/07 03:37:04;;;;;;;79.13;34.90;;;2.60;99.90;;;;;;5033274;28;20106;-44
2023/12/07 03:39:32;;;;;;;82.85;37.22;;;2.60;99.90;;;;;;5031134;28;20048;-45
2023/12/07 03:41:58;;;;;;;79.47;37.10;;;2.60;99.90;;;;;;5031001;28;20066;-48
2023/12/07 03:44:23;;;;;;;72.28;36.50;;;2.60;99.90;;;;;;5032659;28;20104;-49
2023/12/07 03:46:49;;;;;;;79.53;38.05;;;2.70;99.90;;;;;;5034767;28;20032;-45
2023/12/07 03:49:15;;;;;;;79.68;36.83;;;2.60;99.90;;;;;;5032910;28;20329;-48
2023/12/07 03:51:40;;;;;;;69.78;35.80;;;2.60;99.90;;;;;;5032624;28;20051;-48
2023/12/07 03:54:06;;;;;;;68.20;34.90;;;2.70;99.90;;;;;;5032419;28;20031;-45
2023/12/07 03:56:32;;;;;;;73.90;34.30;;;2.70;99.90;;;;;;5032972;28;20025;-49
2023/12/07 03:58:58;;;;;;;73.22;34.90;;;2.70;99.90;;;;;;5030522;28;20029;-45
2023/12/07 04:01:25;;;;;;;73.13;36.65;;;2.70;99.90;;;;;;5032950;28;20013;-48
2023/12/07 04:03:55;;;;;;;68.07;33.53;;;2.70;99.90;;;;;;5035015;28;20029;-44
2023/12/07 04:06:22;;;;;;;69.70;34.50;;;2.70;99.90;;;;;;5030797;28;20513;-49
2023/12/07 04:08:48;;;;;;;72.88;36.67;;;2.70;99.90;;;;;;5034757;28;20099;-45
2023/12/07 04:11:15;;;;;;;62.42;33.10;;;2.70;99.90;;;;;;5033186;28;20343;-48
2023/12/07 04:13:41;;;;;;;66.93;33.80;;;2.70;99.90;;;;;;5033720;28;20037;-48
2023/12/07 04:16:08;;;;;;;69.53;34.72;;;2.70;99.90;;;;;;5031694;28;20024;-49
2023/12/07 04:18:33;;;;;;;65.70;34.20;;;2.80;99.90;;;;;;5048442;28;20030;-47
2023/12/07 04:20:59;;;;;;;67.90;34.67;;;2.70;99.90;;;;;;5035154;28;20017;-45
2023/12/07 04:23:25;;;;;;;62.15;31.75;;;2.70;99.90;;;;;;5033631;28;20066;-46
2023/12/07 04:25:50;;;;;;;69.10;34.05;;;2.70;99.90;;;;;;5035421;28;20033;-44
2023/12/07 04:28:16;;;;;;;67.82;32.58;;;2.80;99.90;;;;;;5033089;28;20025;-48
2023/12/07 04:30:41;;;;;;;59.35;31.05;;;2.80;99.90;;;;;;5034062;28;20382;-47
2023/12/07 04:33:07;;;;;;;61.35;32.60;;;2.80;99.90;;;;;;5034586;28;20427;-48
2023/12/07 04:35:34;;;;;;;61.33;32.80;;;2.80;99.90;;;;;;5033375;28;20033;-47
2023/12/07 04:38:00;;;;;;;63.85;32.83;;;2.80;99.90;;;;;;5035408;28;20217;-49
2023/12/07 04:40:26;;;;;;;62.35;32.25;;;2.80;99.90;;;;;;5032843;28;20018;-49
2023/12/07 04:42:52;;;;;;;59.35;32.45;;;2.80;99.90;;;;;;5035984;28;20475;-47
2023/12/07 04:45:18;;;;;;;61.15;32.20;;;2.80;99.90;;;;;;5033572;28;20036;-45
2023/12/07 04:47:44;;;;;;;58.90;29.67;;;2.80;99.90;;;;;;5035745;28;20022;-47
2023/12/07 04:50:09;;;;;;;65.88;34.08;;;2.80;99.90;;;;;;5038081;28;20048;-48
2023/12/07 04:52:35;;;;;;;65.03;33.25;;;2.80;99.90;;;;;;5037834;28;20679;-44
2023/12/07 04:55:01;;;;;;;58.95;30.85;;;2.80;99.90;;;;;;5038609;28;20033;-50
2023/12/07 04:57:27;;;;;;;57.20;31.80;;;2.80;99.90;;;;;;5037647;28;20025;-46
2023/12/07 04:59:52;;;;;;;56.92;30.27;;;2.80;99.90;;;;;;5039996;28;20119;-46
2023/12/07 05:02:18;;;;;;;61.92;31.55;;;2.80;99.90;;;;;;5037306;28;20081;-44
2023/12/07 05:04:47;;;;;;;60.00;32.35;;;2.90;99.90;;;;;;5053981;28;20029;-45
2023/12/07 05:07:13;;;;;;;57.30;30.30;;;2.80;99.90;;;;;;5037877;28;20033;-44
2023/12/07 05:09:40;;;;;;;51.15;28.70;;;2.80;99.90;;;;;;5038186;28;20100;-45
2023/12/07 05:12:06;;;;;;;59.00;31.85;;;2.80;99.90;;;;;;5039668;28;20082;-48
2023/12/07 05:14:32;;;;;;;53.03;29.05;;;2.80;99.90;;;;;;5037549;28;20025;-45
2023/12/07 05:16:58;;;;;;;60.20;33.05;;;2.80;99.90;;;;;;5034492;28;20049;-45
2023/12/07 05:19:24;;;;;;;58.95;31.27;;;2.90;99.90;;;;;;5035563;28;20466;-45
2023/12/07 05:21:50;;;;;;;59.50;32.80;;;2.80;99.90;;;;;;5040014;28;20021;-46
2023/12/07 05:24:16;;;;;;;56.05;30.70;;;2.80;99.90;;;;;;5036404;28;20018;-49
2023/12/07 05:26:42;;;;;;;57.58;30.20;;;2.90;99.90;;;;;;5038250;28;20083;-47
2023/12/07 05:29:08;;;;;;;67.63;34.03;;;2.80;99.90;;;;;;5038627;28;20017;-46
2023/12/07 05:31:34;;;;;;;58.75;30.80;;;2.80;99.90;;;;;;5052842;28;20037;-48
2023/12/07 05:34:00;;;;;;;59.95;32.70;;;2.80;99.90;;;;;;5040317;28;20544;-48
2023/12/07 05:36:26;;;;;;;55.85;31.45;;;2.80;99.90;;;;;;5037483;28;20297;-46
2023/12/07 05:38:52;;;;;;;60.63;33.33;;;2.80;99.90;;;;;;5033993;28;20514;-47
2023/12/07 05:41:17;;;;;;;68.18;32.70;;;2.80;99.90;;;;;;5032693;28;20032;-46
2023/12/07 05:43:43;;;;;;;66.07;33.10;;;2.80;99.90;;;;;;5033585;28;20632;-48
2023/12/07 05:46:09;;;;;;;60.97;32.33;;;2.80;99.90;;;;;;5035594;28;20029;-47
2023/12/07 05:48:35;;;;;;;56.40;29.85;;;2.80;99.90;;;;;;5033228;28;20037;-50
2023/12/07 05:51:04;;;;;;;54.72;29.48;;;2.80;99.90;;;;;;5033157;28;20024;-46
2023/12/07 05:53:32;;;;;;;57.30;29.60;;;2.90;99.90;;;;;;5031063;28;20080;-48
2023/12/07 05:55:58;;;;;;;57.05;32.05;;;2.80;99.90;;;;;;5040435;28;20051;-46
2023/12/07 05:58:23;;;;;;;58.20;30.77;;;2.80;99.90;;;;;;5036281;28;20049;-47
2023/12/07 06:00:49;;;;;;;60.78;30.98;;;2.90;99.90;;;;;;5038573;28;20031;-46
2023/12/07 06:03:15;;;;;;;58.75;31.63;;;2.80;99.90;;;;;;5037883;28;20108;-48
2023/12/07 06:05:41;;;;;;;61.53;30.27;;;2.80;99.90;;;;;;5032208;28;20053;-45
2023/12/07 06:08:07;;;;;;;54.17;29.48;;;2.80;99.90;;;;;;5032200;28;20043;-46
2023/12/07 06:10:33;;;;;;;54.10;29.88;;;2.80;99.90;;;;;;5032098;28;20087;-44
2023/12/07 06:13:00;;;;;;;53.40;29.52;;;2.80;99.90;;;;;;5034535;28;20390;-44
2023/12/07 06:15:27;;;;;;;57.78;30.60;;;2.90;99.90;;;;;;5037424;28;20020;-47
2023/12/07 06:17:54;;;;;;;51.42;29.67;;;2.90;99.90;;;;;;5055689;28;20379;-44
2023/12/07 06:20:20;;;;;;;50.97;27.80;;;2.90;99.90;;;;;;5037917;28;20040;-44
2023/12/07 06:22:45;;;;;;;49.80;26.85;;;2.90;99.90;;;;;;5039457;28;20075;-45
2023/12/07 06:25:11;;;;;;;53.00;28.45;;;2.90;99.90;;;;;;5035317;28;20029;-46
2023/12/07 06:27:37;;;;;;;51.25;29.63;;;2.90;99.90;;;;;;5031747;28;20094;-47
2023/12/07 06:30:05;;;;;;;50.33;27.95;;;2.90;99.90;;;;;;5047306;28;20036;-44
2023/12/07 06:32:31;;;;;;;53.13;28.35;;;2.90;99.90;;;;;;5030863;28;20029;-44
2023/12/07 06:34:57;;;;;;;52.58;27.98;;;2.90;99.90;;;;;;5033259;28;20546;-47
2023/12/07 06:37:23;;;;;;;58.72;30.02;;;2.90;99.90;;;;;;5031566;28;20112;-45
2023/12/07 06:39:49;;;;;;;56.00;27.85;;;2.90;99.90;;;;;;5030096;28;20025;-44
2023/12/07 06:42:15;;;;;;;54.63;27.70;;;2.90;99.90;;;;;;5030227;28;20025;-46
2023/12/07 06:44:43;;;;;;;48.63;27.65;;;2.90;99.90;;;;;;5030508;28;20029;-44
2023/12/07 06:47:09;;;;;;;54.55;29.13;;;2.90;99.90;;;;;;5024630;28;20475;-45
2023/12/07 06:49:35;;;;;;;52.58;29.58;;;2.90;99.90;;;;;;5029878;28;20038;-45
2023/12/07 06:52:01;;;;;;;51.17;28.75;;;2.90;99.90;;;;;;5031768;28;20471;-44
2023/12/07 06:54:27;;;;;;;52.55;28.00;;;2.90;99.90;;;;;;5037723;28;20021;-45
2023/12/07 06:56:53;;;;;;;55.80;28.45;;;2.90;99.90;;;;;;5035021;28;20106;-45
2023/12/07 06:59:19;;;;;;;53.67;28.90;;;2.90;99.90;;;;;;5038392;28;20104;-43
2023/12/07 07:01:45;;;;;;;50.45;28.20;;;2.90;99.90;;;;;;5039350;28;20029;-44
2023/12/07 07:04:11;;;;;;;51.72;27.15;;;2.90;99.90;;;;;;5039965;28;20025;-44
2023/12/07 07:06:36;;;;;;;54.83;28.65;;;2.90;99.90;;;;;;5038166;28;20041;-45
2023/12/07 07:09:04;;;;;;;48.40;26.92;;;3.00;99.90;;;;;;5056035;28;20065;-45
2023/12/07 07:11:30;;;;;;;51.80;26.77;;;2.90;99.90;;;;;;5037495;28;20018;-45
2023/12/07 07:13:56;;;;;;;45.65;24.90;;;3.00;99.90;;;;;;5040734;28;20079;-44
2023/12/07 07:16:21;;;;;;;47.05;27.25;;;3.00;99.90;;;;;;5037107;28;20052;-49
2023/12/07 07:18:47;;;;;;;43.67;24.98;;;3.00;99.90;;;;;;5039404;28;20029;-45
2023/12/07 07:21:13;;;;;;;42.75;24.83;;;3.00;99.90;;;;;;5038344;28;20045;-47
2023/12/07 07:23:39;;;;;;;44.45;25.52;;;3.00;99.90;;;;;;5038367;28;20442;-46
2023/12/07 07:26:05;;;;;;;52.95;26.83;;;3.00;99.90;;;;;;5040182;28;20029;-49
2023/12/07 07:28:31;;;;;;;50.22;27.88;;;3.00;99.90;;;;;;5037542;28;20064;-46
2023/12/07 07:30:56;;;;;;;50.42;27.92;;;3.00;99.90;;;;;;5040557;28;20024;-44
2023/12/07 07:33:22;;;;;;;49.20;26.33;;;3.00;99.90;;;;;;5038396;28;20029;-45
2023/12/07 07:35:47;;;;;;;59.05;27.63;;;3.00;99.90;;;;;;5039241;28;20025;-44
2023/12/07 07:38:14;;;;;;;42.40;25.30;;;3.00;99.90;;;;;;5039525;28;20654;-45
2023/12/07 07:40:40;;;;;;;51.97;29.27;;;3.10;99.90;;;;;;5053313;28;20013;-44
2023/12/07 07:43:05;;;;;;;45.58;26.25;;;3.00;99.90;;;;;;5040665;28;20409;-44
2023/12/07 07:45:31;;;;;;;48.15;26.13;;;3.10;99.90;;;;;;5038259;28;20021;-45
2023/12/07 07:47:57;;;;;;;45.88;25.33;;;3.10;99.90;;;;;;5041083;28;20389;-44
2023/12/07 07:50:22;;;;;;;45.47;25.50;;;3.10;99.90;;;;;;5038596;28;20067;-43
2023/12/07 07:52:48;;;;;;;45.38;25.40;;;3.10;99.90;;;;;;5039907;28;20017;-42
2023/12/07 07:55:13;;;;;;;44.67;25.33;;;3.10;99.90;;;;;;5040326;28;20059;-44
2023/12/07 07:57:39;;;;;;;41.80;23.48;;;3.10;99.90;;;;;;5039125;28;20466;-45
2023/12/07 08:00:08;;;;;;;42.47;24.38;;;3.10;99.90;;;;;;5026599;28;20117;-46
2023/12/07 08:02:34;;;;;;;45.90;25.58;;;3.10;99.90;;;;;;5031824;28;20028;-45
2023/12/07 08:04:59;;;;;;;41.95;24.83;;;3.20;99.90;;;;;;5037723;28;20444;-44
2023/12/07 08:07:25;;;;;;;47.03;25.23;;;3.20;99.90;;;;;;5028898;28;20529;-45
2023/12/07 08:09:51;;;;;;;44.55;24.90;;;3.10;99.90;;;;;;5029633;28;20032;-44
2023/12/07 08:12:16;;;;;;;47.00;25.90;;;3.20;99.90;;;;;;5037115;28;20036;-46
2023/12/07 08:14:43;;;;;;;41.15;24.27;;;3.20;99.90;;;;;;5038569;28;20091;-44
2023/12/07 08:17:09;;;;;;;43.22;24.50;;;3.20;99.90;;;;;;5041068;28;20029;-44
2023/12/07 08:19:35;;;;;;;43.90;25.10;;;3.20;99.90;;;;;;5037654;28;20087;-44
2023/12/07 08:22:00;;;;;;;51.60;26.58;;;3.20;99.90;;;;;;5041052;28;20025;-44
2023/12/07 08:24:26;;;;;;;44.72;25.58;;;3.20;99.90;;;;;;5038448;28;20064;-45
2023/12/07 08:26:52;;;;;;;42.58;25.00;;;3.20;99.90;;;;;;5040205;28;20037;-47
2023/12/07 08:29:18;;;;;;;45.30;26.08;;;3.20;99.90;;;;;;5039416;28;20075;-46
2023/12/07 08:31:43;;;;;;;45.17;25.30;;;3.20;99.90;;;;;;5039033;28;20438;-45
2023/12/07 08:34:09;;;;;;;46.67;25.80;;;3.20;99.90;;;;;;5040787;28;20079;-48
2023/12/07 08:36:35;;;;;;;45.53;25.40;;;3.20;99.90;;;;;;5038250;28;20471;-45
2023/12/07 08:39:00;;;;;;;45.58;26.05;;;3.30;99.90;;;;;;5040878;28;20027;-46
2023/12/07 08:41:26;;;;;;;50.63;28.42;;;3.30;99.90;;;;;;5038615;28;20029;-48
2023/12/07 08:43:52;;;;;;;44.97;26.15;;;3.30;99.90;;;;;;5040196;28;20021;-45
2023/12/07 08:46:17;;;;;;;45.10;26.65;;;3.30;99.90;;;;;;5040004;28;20482;-44
2023/12/07 08:48:43;;;;;;;45.17;26.80;;;3.30;99.90;;;;;;5053975;28;20040;-42
2023/12/07 08:51:08;;;;;;;50.10;27.10;;;3.30;99.90;;;;;;5040889;28;20151;-46
2023/12/07 08:53:38;;;;;;;48.15;27.80;;;3.30;99.90;;;;;;5037423;28;20059;-46
2023/12/07 08:56:04;;;;;;;44.55;25.30;;;3.30;99.90;;;;;;5033791;28;20025;-49
2023/12/07 08:58:30;;;;;;;43.13;25.25;;;3.40;99.90;;;;;;5029725;28;20036;-46
2023/12/07 09:00:55;;;;;;;43.40;25.80;;;3.40;99.90;;;;;;5038167;28;20025;-45
2023/12/07 09:03:25;;;;;;;44.78;27.10;;;3.50;99.90;;;;;;5039150;28;20036;-47
2023/12/07 09:05:51;;;;;;;45.47;25.87;;;3.40;99.90;;;;;;5039436;28;20029;-45
2023/12/07 09:08:17;;;;;;;44.13;26.17;;;3.50;99.90;;;;;;5041187;28;20263;-46
2023/12/07 09:10:42;;;;;;;46.53;26.15;;;3.50;99.90;;;;;;5054278;28;20479;-46
2023/12/07 09:13:08;;;;;;;46.47;26.60;;;3.50;99.90;;;;;;5041893;28;20079;-48
2023/12/07 09:15:37;;;;;;;41.63;25.63;;;3.50;99.90;;;;;;5038737;28;20021;-45
2023/12/07 09:18:03;;;;;;;46.35;26.83;;;3.60;99.90;;;;;;5038826;28;20017;-47
2023/12/07 09:20:29;;;;;;;44.10;24.50;;;3.50;99.90;;;;;;5029112;28;20506;-45
2023/12/07 09:22:57;;;;;;;41.65;24.83;;;3.50;99.90;;;;;;5030900;28;20147;-45
2023/12/07 09:25:22;;;;;;;43.95;25.40;;;3.60;99.90;;;;;;5032968;28;20017;-46
2023/12/07 09:27:48;;;;;;;41.83;24.67;;;3.60;99.90;;;;;;5050342;28;20033;-45
2023/12/07 09:30:14;;;;;;;45.20;26.08;;;3.60;99.90;;;;;;5037311;28;20052;-45
2023/12/07 09:32:42;;;;;;;46.70;27.95;;;3.50;99.90;;;;;;5038877;28;20443;-48
2023/12/07 09:35:14;;;;;;;44.83;24.38;;;3.60;99.90;;;;;;5044374;28;20108;-45
2023/12/07 09:37:40;;;;;;;39.83;23.50;;;3.60;99.90;;;;;;5035012;28;20053;-48
2023/12/07 09:40:07;;;;;;;41.35;23.38;;;3.60;99.90;;;;;;5043764;28;20052;-45
2023/12/07 09:42:33;;;;;;;42.13;24.60;;;3.70;99.90;;;;;;5035726;28;20402;-49
2023/12/07 09:44:59;;;;;;;44.50;24.65;;;3.70;99.90;;;;;;5034970;28;20021;-45
2023/12/07 09:47:28;;;;;;;37.90;22.83;;;3.80;99.90;;;;;;5038585;28;20053;-44
2023/12/07 09:49:53;;;;;;;37.67;22.55;;;3.80;99.90;;;;;;5044576;28;20069;-49
2023/12/07 09:52:22;;;;;;;40.10;23.98;;;3.80;99.90;;;;;;5037562;28;20051;-47
2023/12/07 09:54:50;;;;;;;41.58;23.25;;;3.90;99.90;;;;;;5044001;28;20025;-44
2023/12/07 09:57:16;;;;;;;39.05;23.45;;;3.90;99.90;;;;;;5045433;28;20045;-46
2023/12/07 09:59:41;;;;;;;40.63;23.98;;;4.00;99.90;;;;;;5042970;28;20060;-47
2023/12/07 10:02:10;;;;;;;39.70;23.45;;;4.00;99.90;;;;;;5044251;28;20025;-46
2023/12/07 10:04:36;;;;;;;40.00;22.35;;;4.00;99.90;;;;;;5033010;28;20028;-47
2023/12/07 10:07:02;;;;;;;39.55;23.33;;;4.10;99.90;;;;;;5032906;28;20534;-45
2023/12/07 10:09:28;;;;;;;38.38;22.38;;;4.10;99.90;;;;;;5024400;28;20033;-49
2023/12/07 10:12:04;;;;;;;39.88;23.33;;;4.20;99.90;;;;;;5033431;28;20087;-44
2023/12/07 10:14:30;;;;;;;38.80;23.17;;;4.20;99.90;;;;;;5037728;28;20509;-46
2023/12/07 10:16:56;;;;;;;41.88;25.58;;;4.20;99.90;;;;;;5039651;28;20988;-45
2023/12/07 10:19:23;;;;;;;40.35;23.58;;;4.10;99.90;;;;;;5027545;28;20095;-46
2023/12/07 10:21:50;;;;;;;37.70;23.33;;;4.20;99.90;;;;;;5031020;28;20010;-47
2023/12/07 10:24:19;;;;;;;41.08;23.20;;;4.20;99.90;;;;;;5032535;28;20067;-44
2023/12/07 10:26:46;;;;;;;35.03;21.35;;;4.20;99.90;;;;;;5036469;28;20406;-43
2023/12/07 10:29:12;;;;;;;38.55;23.55;;;4.30;99.90;;;;;;5045733;28;20079;-43
2023/12/07 10:31:38;;;;;;;38.80;23.30;;;4.30;99.90;;;;;;5043801;28;20025;-44
2023/12/07 10:34:08;;;;;;;39.15;21.90;;;4.40;99.90;;;;;;5046083;28;20078;-49
2023/12/07 10:36:34;;;;;;;38.07;21.83;;;4.40;99.90;;;;;;5041977;28;20021;-48
2023/12/07 10:38:59;;;;;;;38.88;21.73;;;4.40;99.90;;;;;;5045431;28;20255;-45
2023/12/07 10:41:26;;;;;;;39.83;24.23;;;4.30;99.90;;;;;;5044583;28;20052;-48
2023/12/07 10:43:53;;;;;;;34.42;20.80;;;4.40;99.90;;;;;;5044664;28;20057;-46
2023/12/07 10:46:22;;;;;;;35.83;22.70;;;4.40;99.90;;;;;;5026983;28;20079;-46
2023/12/07 10:48:51;;;;;;;34.67;21.23;;;4.40;99.90;;;;;;5044057;28;20132;-47
2023/12/07 10:51:38;;;;;;;35.72;20.48;;;4.50;99.90;;;;;;5045970;28;20103;-45
2023/12/07 10:54:07;;;;;;;34.88;21.70;;;4.50;99.90;;;;;;5039897;28;20048;-45
2023/12/07 10:56:40;;;;;;;35.38;21.08;;;4.50;99.90;;;;;;5042567;28;20017;-45
2023/12/07 10:59:10;;;;;;;39.90;22.70;;;4.60;99.90;;;;;;5035236;28;20027;-46
2023/12/07 11:01:40;;;;;;;34.13;21.85;;;4.60;99.90;;;;;;5042275;28;20493;-44
2023/12/07 11:04:06;;;;;;;34.90;20.73;;;4.60;99.90;;;;;;5044503;28;20025;-47
2023/12/07 11:06:36;;;;;;;36.40;21.27;;;4.50;99.90;;;;;;5044214;28;20041;-48
2023/12/07 11:09:05;;;;;;;35.47;21.23;;;4.50;99.90;;;;;;5033598;28;20021;-45
2023/12/07 11:11:52;;;;;;;36.97;21.97;;;4.50;99.90;;;;;;5044379;28;20049;-44
2023/12/07 11:14:18;;;;;;;33.25;20.85;;;4.50;99.90;;;;;;5038349;28;20291;-47
2023/12/07 11:16:46;;;;;;;35.15;21.02;;;4.50;99.90;;;;;;5042153;28;20029;-46
2023/12/07 11:19:33;;;;;;;31.42;19.67;;;4.60;99.90;;;;;;5060484;28;20021;-47
2023/12/07 11:22:09;;;;;;;31.38;20.38;;;4.60;99.90;;;;;;5032896;28;20124;-47
2023/12/07 11:24:35;;;;;;;34.38;20.58;;;4.60;99.90;;;;;;5043942;28;20021;-47
2023/12/07 11:27:02;;;;;;;35.20;20.92;;;4.70;99.90;;;;;;5045725;28;20480;-45
2023/12/07 11:29:32;;;;;;;33.28;20.63;;;4.70;99.90;;;;;;5044659;28;20066;-45
2023/12/07 11:32:06;;;;;;;29.30;18.90;;;4.70;99.90;;;;;;5045644;28;20025;-44
2023/12/07 11:34:39;;;;;;;30.63;19.08;;;4.70;99.90;;;;;;5059708;28;20333;-44
2023/12/07 11:37:09;;;;;;;30.10;18.27;;;4.80;99.90;;;;;;5034506;28;20405;-46
2023/12/07 11:39:36;;;;;;;31.85;18.90;;;4.70;99.90;;;;;;5043633;28;20414;-45
2023/12/07 11:42:19;;;;;;;29.33;18.52;;;4.70;99.90;;;;;;5045660;28;20031;-46
2023/12/07 11:44:52;;;;;;;30.63;19.52;;;4.70;99.90;;;;;;5043835;28;20021;-45
2023/12/07 11:47:21;;;;;;;27.85;18.25;;;4.70;99.90;;;;;;5045745;28;20556;-48
2023/12/07 11:49:47;;;;;;;33.20;19.90;;;4.80;99.90;;;;;;5043601;28;20030;-47
2023/12/07 11:52:18;;;;;;;28.75;18.30;;;4.70;99.90;;;;;;5045869;28;20029;-45
2023/12/07 11:54:47;;;;;;;30.77;18.33;;;4.80;99.90;;;;;;5043982;28;20108;-47
2023/12/07 11:57:14;;;;;;;28.15;17.60;;;4.80;99.90;;;;;;5044701;28;20252;-44
2023/12/07 11:59:41;;;;;;;28.70;18.67;;;4.80;99.90;;;;;;5043988;28;20528;-47
2023/12/07 12:02:06;;;;;;;31.00;18.73;;;4.80;99.90;;;;;;5046021;28;20355;-46
2023/12/07 12:04:32;;;;;;;33.05;19.38;;;4.80;99.90;;;;;;5040451;28;20068;-48
2023/12/07 12:06:58;;;;;;;29.08;17.70;;;4.80;99.90;;;;;;5034902;28;20041;-48
2023/12/07 12:09:24;;;;;;;29.27;18.80;;;4.80;99.90;;;;;;5031832;28;20025;-47
2023/12/07 12:11:50;;;;;;;31.38;18.77;;;4.80;99.90;;;;;;5041002;28;20163;-48
2023/12/07 12:14:16;;;;;;;29.02;17.73;;;4.80;99.90;;;;;;5039154;28;20104;-47
2023/12/07 12:16:44;;;;;;;33.30;18.58;;;4.80;99.90;;;;;;5040979;28;20021;-47
2023/12/07 12:19:10;;;;;;;26.15;17.50;;;4.80;99.90;;;;;;5041214;28;20040;-45
2023/12/07 12:21:38;;;;;;;26.05;16.20;;;4.80;99.90;;;;;;5042831;28;20036;-45
2023/12/07 12:24:11;;;;;;;26.25;17.95;;;4.80;99.90;;;;;;5041920;28;20032;-44
2023/12/07 12:26:38;;;;;;;30.55;18.40;;;4.80;99.90;;;;;;5035641;28;20033;-47
2023/12/07 12:29:11;;;;;;;25.52;17.30;;;4.90;99.90;;;;;;5043079;28;20033;-46
2023/12/07 12:31:37;;;;;;;27.77;17.73;;;4.90;99.90;;;;;;5044714;28;20040;-46
2023/12/07 12:34:05;;;;;;;27.30;17.50;;;4.90;99.90;;;;;;5043961;28;20029;-46
2023/12/07 12:36:31;;;;;;;25.75;16.73;;;4.90;99.90;;;;;;5045122;28;20036;-47